createdAt,value
2024-04-24T00:00:41.208Z,11.43
2024-04-24T00:04:45.052Z,12.68
2024-04-24T00:06:47.114Z,15.73
2024-04-24T00:08:49.174Z,12.97
2024-04-24T00:10:54.830Z,12.60
2024-04-24T00:12:56.784Z,10.17
2024-04-24T00:17:00.568Z,10.40
2024-04-24T00:21:05.349Z,9.93
2024-04-24T00:23:07.268Z,11.63
2024-04-24T00:27:10.953Z,12.25
2024-04-24T00:31:14.838Z,10.77
2024-04-24T00:33:16.926Z,10.87
2024-04-24T00:35:19.006Z,11.07
2024-04-24T00:37:20.922Z,13.13
2024-04-24T00:41:24.717Z,11.52
2024-04-24T00:45:28.797Z,12.52
2024-04-24T00:49:34.444Z,11.77
2024-04-24T00:51:38.903Z,9.50
2024-04-24T00:53:40.836Z,12.70
2024-04-24T00:55:42.834Z,9.73
2024-04-24T00:57:45.309Z,10.53
2024-04-24T00:59:47.622Z,9.57
2024-04-24T01:01:49.510Z,9.63
2024-04-24T01:05:53.579Z,10.32
2024-04-24T01:07:55.513Z,9.53
2024-04-24T01:09:57.425Z,10.37
2024-04-24T01:14:01.696Z,10.00
2024-04-24T01:16:05.488Z,10.47
2024-04-24T01:18:07.889Z,8.70
2024-04-24T01:20:14.854Z,9.83
2024-04-24T01:22:39.397Z,10.70
2024-04-24T01:24:52.086Z,9.93
2024-04-24T01:26:55.813Z,9.33
2024-04-24T01:28:57.963Z,11.17
2024-04-24T01:31:01.826Z,11.73
2024-04-24T01:33:04.376Z,10.00
2024-04-24T01:35:06.639Z,10.37
2024-04-24T01:37:08.547Z,9.83
2024-04-24T01:41:12.600Z,10.15
2024-04-24T01:43:14.595Z,14.17
2024-04-24T01:45:16.568Z,13.70
2024-04-24T01:47:18.633Z,11.20
2024-04-24T01:49:20.594Z,9.73
2024-04-24T01:53:24.576Z,9.27
2024-04-24T01:55:26.448Z,8.87
2024-04-24T01:59:30.075Z,10.85
2024-04-24T02:03:33.708Z,12.90
2024-04-24T02:07:37.527Z,10.95
2024-04-24T02:11:41.521Z,17.02
2024-04-24T02:13:43.564Z,12.27
2024-04-24T02:15:45.445Z,10.97
2024-04-24T02:19:49.396Z,12.65
2024-04-24T02:23:53.385Z,16.27
2024-04-24T02:25:55.386Z,11.43
2024-04-24T02:27:57.322Z,13.93
2024-04-24T02:32:01.237Z,15.02
2024-04-24T02:34:03.292Z,19.10
2024-04-24T02:36:05.660Z,14.83
2024-04-24T02:38:09.229Z,15.90
2024-04-24T02:40:11.555Z,17.47
2024-04-24T02:42:13.686Z,15.43
2024-04-24T02:44:15.657Z,18.73
2024-04-24T02:46:17.606Z,15.03
2024-04-24T02:50:21.676Z,12.95
2024-04-24T02:52:23.665Z,16.03
2024-04-24T02:56:27.770Z,14.32
2024-04-24T02:58:29.932Z,15.57
2024-04-24T03:00:31.930Z,15.37
2024-04-24T03:02:33.936Z,14.43
2024-04-24T03:04:35.859Z,15.33
2024-04-24T03:08:49.351Z,12.47
2024-04-24T03:10:51.385Z,11.43
2024-04-24T03:12:53.412Z,16.07
2024-04-24T03:14:55.693Z,14.87
2024-04-24T03:16:57.762Z,11.23
2024-04-24T03:19:00.440Z,11.63
2024-04-24T03:21:02.503Z,12.80
2024-04-24T03:23:05.698Z,13.40
2024-04-24T03:25:08.099Z,14.47
2024-04-24T03:27:10.141Z,11.83
2024-04-24T03:29:12.153Z,13.23
2024-04-24T03:31:14.376Z,14.80
2024-04-24T03:33:16.442Z,12.70
2024-04-24T03:35:18.836Z,14.07
2024-04-24T03:37:20.812Z,12.07
2024-04-24T03:39:22.704Z,14.57
2024-04-24T03:43:26.494Z,12.68
2024-04-24T03:47:30.799Z,18.73
2024-04-24T03:49:32.813Z,12.40
2024-04-24T03:53:36.479Z,13.32
2024-04-24T03:57:40.324Z,12.50
2024-04-24T04:01:44.091Z,13.15
2024-04-24T04:05:47.809Z,13.05
2024-04-24T04:09:58.708Z,12.00
2024-04-24T04:12:00.692Z,11.77
2024-04-24T04:14:02.767Z,12.80
2024-04-24T04:16:05.032Z,12.10
2024-04-24T04:18:07.000Z,13.37
2024-04-24T04:20:09.312Z,13.57
2024-04-24T04:22:11.322Z,10.43
2024-04-24T04:24:13.293Z,9.93
2024-04-24T04:26:15.362Z,12.43
2024-04-24T04:28:17.357Z,13.63
2024-04-24T04:32:21.505Z,13.27
2024-04-24T04:34:23.626Z,12.40
2024-04-24T04:36:25.481Z,10.13
2024-04-24T04:40:29.206Z,12.30
2024-04-24T04:44:33.080Z,10.63
2024-04-24T04:46:35.061Z,12.17
2024-04-24T04:48:36.947Z,12.53
2024-04-24T04:52:40.696Z,12.10
2024-04-24T04:56:45.971Z,14.18
2024-04-24T04:58:49.542Z,10.67
2024-04-24T05:00:51.632Z,12.03
2024-04-24T06:34:21.283Z,8.93
2024-04-24T06:36:23.264Z,8.63
2024-04-24T06:38:26.381Z,9.87
2024-04-24T06:40:28.527Z,7.30
2024-04-24T06:42:30.409Z,13.17
2024-04-24T06:46:34.201Z,20.15
2024-04-24T06:48:36.162Z,9.77
2024-04-24T06:50:38.186Z,4.23
2024-04-24T06:52:40.116Z,6.53
2024-04-24T06:54:42.032Z,9.30
2024-04-24T06:56:43.888Z,10.57
2024-04-24T07:00:48.623Z,14.98
2024-04-24T07:02:50.580Z,11.47
2024-04-24T07:04:52.594Z,10.87
2024-04-24T07:06:54.537Z,10.77
2024-04-24T07:08:56.496Z,14.07
2024-04-24T07:10:59.670Z,7.97
2024-04-24T07:13:03.593Z,10.87
2024-04-24T07:15:05.715Z,12.50
2024-04-24T07:17:07.698Z,8.50
2024-04-24T07:19:12.137Z,5.93
2024-04-24T07:21:15.495Z,10.97
2024-04-24T07:23:18.094Z,9.93
2024-04-24T07:25:19.973Z,9.97
2024-04-24T07:29:23.821Z,4.35
2024-04-24T07:31:25.939Z,5.97
2024-04-24T07:33:28.024Z,6.03
2024-04-24T07:35:30.075Z,10.23
2024-04-24T07:37:31.964Z,6.07
2024-04-24T07:39:33.893Z,6.53
2024-04-24T07:41:36.301Z,6.45
2024-04-24T07:43:38.860Z,5.78
2024-04-24T07:45:42.166Z,6.90
2024-04-24T07:47:44.274Z,4.30
2024-04-24T07:49:46.444Z,4.30
2024-04-24T07:51:48.396Z,4.82
2024-04-24T07:53:50.266Z,6.13
2024-04-24T07:55:52.299Z,8.75
2024-04-24T07:57:54.311Z,3.92
2024-04-24T07:59:56.246Z,6.10
2024-04-24T08:01:58.880Z,6.35
2024-04-24T08:04:00.953Z,7.82
2024-04-24T08:06:03.219Z,4.20
2024-04-24T08:08:05.823Z,3.22
2024-04-24T08:10:11.324Z,3.17
2024-04-24T08:12:13.417Z,5.60
2024-04-24T08:14:15.446Z,8.40
2024-04-24T08:16:17.518Z,3.53
2024-04-24T08:18:20.278Z,3.20
2024-04-24T08:20:22.209Z,4.90
2024-04-24T08:22:24.862Z,2.67
2024-04-24T08:24:26.925Z,1.97
2024-04-24T08:26:28.963Z,7.50
2024-04-24T08:28:38.424Z,3.27
2024-04-24T08:30:43.289Z,10.07
2024-04-24T08:32:45.363Z,5.77
2024-04-24T08:34:47.528Z,5.67
2024-04-24T08:36:49.586Z,5.20
2024-04-24T08:38:51.548Z,10.93
2024-04-24T08:40:53.636Z,6.93
2024-04-24T08:42:56.006Z,3.93
2024-04-24T08:44:59.877Z,5.63
2024-04-24T08:47:01.985Z,4.67
2024-04-24T08:49:08.004Z,5.60
2024-04-24T08:51:11.911Z,2.60
2024-04-24T08:53:15.253Z,5.20
2024-04-24T08:55:19.094Z,6.07
2024-04-24T08:57:22.324Z,5.73
2024-04-24T08:59:28.979Z,11.53
2024-04-24T09:01:33.311Z,9.20
2024-04-24T09:03:43.666Z,9.87
2024-04-24T09:05:46.474Z,8.93
2024-04-24T09:07:49.320Z,6.93
2024-04-24T09:09:51.836Z,3.83
2024-04-24T09:11:54.312Z,4.40
2024-04-24T09:13:56.876Z,3.85
2024-04-24T09:16:00.926Z,5.82
2024-04-24T09:18:03.348Z,5.18
2024-04-24T09:20:05.674Z,12.18
2024-04-24T09:22:07.876Z,6.30
2024-04-24T09:24:09.762Z,4.55
2024-04-24T09:26:11.876Z,7.80
2024-04-24T09:28:13.957Z,11.05
2024-04-24T09:30:16.737Z,1.88
2024-04-24T09:32:18.704Z,2.80
2024-04-24T09:34:20.741Z,2.10
2024-04-24T09:36:22.613Z,2.17
2024-04-24T09:40:29.367Z,3.27
2024-04-24T09:42:31.840Z,3.53
2024-04-24T09:44:33.921Z,3.27
2024-04-24T09:46:36.057Z,3.20
2024-04-24T09:48:38.523Z,5.47
2024-04-24T09:50:40.817Z,4.73
2024-04-24T09:52:49.564Z,6.37
2024-04-24T09:54:52.564Z,4.27
2024-04-24T09:56:58.637Z,5.90
2024-04-24T09:59:02.122Z,4.97
2024-04-24T10:01:07.229Z,2.67
2024-04-24T10:03:12.243Z,6.27
2024-04-24T10:05:21.209Z,3.93
2024-04-24T10:07:25.950Z,4.10
2024-04-24T10:09:33.055Z,6.13
2024-04-24T10:11:58.676Z,3.83
2024-04-24T10:14:03.040Z,6.80
2024-04-24T10:16:06.242Z,4.15
2024-04-24T10:18:09.719Z,6.57
2024-04-24T10:20:19.746Z,8.10
2024-04-24T10:22:29.441Z,4.53
2024-04-24T10:24:31.747Z,6.87
2024-04-24T10:26:34.398Z,4.78
2024-04-24T10:28:37.095Z,3.03
2024-04-24T10:30:40.864Z,5.05
2024-04-24T10:32:42.879Z,4.32
2024-04-24T10:34:46.266Z,3.97
2024-04-24T10:36:48.425Z,9.87
2024-04-24T10:38:55.486Z,5.30
2024-04-24T10:40:57.453Z,3.57
2024-04-24T10:43:00.601Z,5.73
2024-04-24T10:45:02.589Z,8.37
2024-04-24T10:47:04.854Z,6.60
2024-04-24T10:49:10.683Z,5.77
2024-04-24T10:51:12.862Z,4.93
2024-04-24T10:53:17.762Z,7.20
2024-04-24T10:55:19.854Z,7.77
2024-04-24T10:57:36.778Z,7.87
2024-04-24T10:59:38.832Z,5.70
2024-04-24T11:01:53.114Z,4.77
2024-04-24T11:03:56.630Z,5.23
2024-04-24T11:06:09.765Z,8.20
2024-04-24T11:08:20.558Z,9.40
2024-04-24T11:10:24.601Z,5.05
2024-04-24T11:12:26.692Z,7.13
2024-04-24T11:14:42.716Z,5.93
2024-04-24T11:16:57.053Z,5.80
2024-04-24T11:18:59.259Z,7.83
2024-04-24T11:21:02.275Z,6.87
2024-04-24T11:23:09.840Z,8.57
2024-04-24T11:25:13.209Z,4.97
2024-04-24T11:27:15.438Z,5.63
2024-04-24T11:29:17.334Z,5.33
2024-04-24T11:31:20.523Z,6.07
2024-04-24T11:33:24.198Z,6.60
2024-04-24T11:35:27.691Z,4.63
2024-04-24T11:37:29.952Z,4.40
2024-04-24T11:39:32.295Z,3.53
2024-04-24T11:41:37.792Z,2.87
2024-04-24T11:43:39.900Z,4.80
2024-04-24T11:45:42.032Z,3.70
2024-04-24T11:47:50.026Z,4.47
2024-04-24T11:49:53.135Z,3.07
2024-04-24T11:51:55.921Z,3.70
2024-04-24T11:53:58.870Z,2.90
2024-04-24T11:56:00.931Z,2.80
2024-04-24T11:58:10.808Z,1.87
2024-04-24T12:00:13.046Z,3.17
2024-04-24T12:02:19.458Z,3.60
2024-04-24T12:04:21.763Z,5.22
2024-04-24T12:06:23.738Z,4.03
2024-04-24T12:08:29.390Z,1.80
2024-04-24T12:10:31.620Z,4.33
2024-04-24T12:12:34.868Z,2.10
2024-04-24T12:14:42.445Z,2.93
2024-04-24T12:16:44.380Z,4.03
2024-04-24T12:18:46.239Z,5.07
2024-04-24T12:22:50.018Z,3.42
2024-04-24T12:26:54.264Z,2.78
2024-04-24T12:28:56.199Z,2.53
2024-04-24T12:31:00.249Z,5.53
2024-04-24T12:33:02.592Z,16.03
2024-04-24T12:35:04.909Z,26.03
2024-04-24T12:37:06.844Z,9.47
2024-04-24T12:39:11.777Z,6.97
2024-04-24T12:41:13.854Z,11.20
2024-04-24T12:43:15.867Z,10.63
2024-04-24T12:45:18.073Z,15.10
2024-04-24T12:47:20.087Z,7.20
2024-04-24T12:49:22.091Z,3.47
2024-04-24T12:51:26.848Z,5.07
2024-04-24T12:53:28.837Z,5.20
2024-04-24T12:55:30.795Z,5.93
2024-04-24T12:59:34.725Z,7.10
2024-04-24T13:01:36.681Z,9.33
2024-04-24T13:03:38.686Z,8.93
2024-04-24T13:05:41.303Z,7.27
2024-04-24T13:07:43.320Z,8.40
2024-04-24T13:09:45.235Z,6.57
2024-04-24T13:13:49.062Z,10.70
2024-04-24T13:17:52.939Z,7.43
2024-04-24T13:19:55.051Z,6.60
2024-04-24T13:21:56.953Z,4.17
2024-04-24T13:26:00.858Z,3.63
2024-04-24T13:28:03.054Z,3.83
2024-04-24T13:30:07.835Z,4.27
2024-04-24T13:32:09.806Z,4.17
2024-04-24T13:34:11.810Z,2.83
2024-04-24T13:36:13.932Z,3.33
2024-04-24T13:38:17.068Z,4.53
2024-04-24T13:40:19.132Z,5.47
2024-04-24T13:42:21.489Z,3.83
2024-04-24T13:44:23.649Z,8.20
2024-04-24T13:46:25.698Z,5.63
2024-04-24T13:48:30.444Z,4.83
2024-04-24T13:50:34.296Z,3.47
2024-04-24T13:52:36.467Z,8.80
2024-04-24T13:54:38.337Z,3.53
2024-04-24T13:58:42.317Z,3.85
2024-04-24T14:00:44.262Z,4.40
2024-04-24T14:02:46.375Z,5.10
2024-04-24T14:04:48.455Z,3.40
2024-04-24T14:06:50.461Z,2.53
2024-04-24T14:08:54.290Z,2.20
2024-04-24T14:10:56.412Z,3.00
2024-04-24T14:12:58.413Z,2.63
2024-04-24T14:15:00.573Z,5.40
2024-04-24T14:17:04.098Z,3.17
2024-04-24T14:19:07.462Z,2.33
2024-04-24T14:21:09.526Z,2.17
2024-04-24T14:23:11.641Z,3.67
2024-04-24T14:25:13.523Z,3.47
2024-04-24T14:29:17.512Z,2.50
2024-04-24T14:31:19.534Z,2.57
2024-04-24T14:33:21.486Z,4.87
2024-04-24T14:35:23.504Z,6.73
2024-04-24T14:37:25.803Z,3.70
2024-04-24T14:39:28.257Z,6.43
2024-04-24T14:41:30.348Z,1.97
2024-04-24T14:43:32.448Z,4.87
2024-04-24T14:45:34.341Z,3.03
2024-04-24T14:47:36.339Z,5.73
2024-04-24T14:49:38.387Z,3.23
2024-04-24T14:51:40.499Z,4.07
2024-04-24T14:55:44.390Z,2.08
2024-04-24T14:57:46.249Z,2.83
2024-04-24T15:01:52.914Z,2.33
2024-04-24T15:03:54.808Z,2.63
2024-04-24T15:08:03.786Z,3.03
2024-04-24T15:10:06.766Z,2.37
2024-04-24T15:12:09.298Z,4.20
2024-04-24T15:14:12.538Z,2.40
2024-04-24T15:16:14.546Z,3.43
2024-04-24T15:18:16.740Z,2.20
2024-04-24T15:20:18.897Z,2.67
2024-04-24T15:22:20.787Z,1.70
2024-04-24T15:26:26.802Z,2.77
2024-04-24T15:28:28.775Z,3.07
2024-04-24T15:30:31.439Z,3.07
2024-04-24T15:32:33.398Z,3.10
2024-04-24T15:34:35.532Z,2.53
2024-04-24T15:36:37.447Z,2.20
2024-04-24T15:38:39.477Z,1.63
2024-04-24T15:40:41.336Z,2.43
2024-04-24T15:44:45.007Z,2.60
2024-04-24T15:46:47.011Z,2.63
2024-04-24T15:48:49.355Z,2.30
2024-04-24T15:50:51.418Z,2.63
2024-04-24T15:52:53.390Z,1.90
2024-04-24T15:54:55.540Z,2.57
2024-04-24T15:56:57.754Z,3.17
2024-04-24T15:58:59.707Z,3.07
2024-04-24T16:01:01.742Z,1.90
2024-04-24T16:03:05.421Z,2.57
2024-04-24T16:05:07.616Z,2.13
2024-04-24T16:07:11.474Z,1.63
2024-04-24T16:09:13.485Z,2.73
2024-04-24T16:11:15.686Z,1.10
2024-04-24T16:13:17.765Z,3.03
2024-04-24T16:15:19.680Z,1.93
2024-04-24T16:19:24.432Z,3.57
2024-04-24T16:21:28.766Z,2.27
2024-04-24T16:23:30.693Z,2.87
2024-04-24T16:25:32.712Z,5.13
2024-04-24T16:27:34.634Z,1.20
2024-04-24T16:29:40.142Z,1.60
2024-04-24T16:31:42.142Z,3.10
2024-04-24T16:33:44.226Z,1.47
2024-04-24T16:35:46.213Z,5.07
2024-04-24T16:37:48.686Z,2.10
2024-04-24T16:39:50.576Z,1.30
2024-04-24T16:43:54.600Z,2.83
2024-04-24T16:45:56.682Z,1.30
2024-04-24T16:47:58.652Z,2.50
2024-04-24T16:50:00.719Z,1.50
2024-04-24T16:52:02.786Z,2.70
2024-04-24T16:54:04.850Z,1.40
2024-04-24T16:56:07.332Z,1.80
2024-04-24T16:58:09.235Z,2.20
2024-04-24T17:02:13.103Z,6.32
2024-04-24T17:04:15.105Z,3.70
2024-04-24T17:06:18.440Z,1.83
2024-04-24T17:08:20.483Z,1.83
2024-04-24T17:10:22.485Z,2.23
2024-04-24T17:12:24.352Z,4.30
2024-04-24T17:16:29.860Z,3.73
2024-04-24T17:18:34.784Z,3.00
2024-04-24T17:20:36.938Z,2.47
2024-04-24T17:22:39.066Z,4.63
2024-04-24T17:24:41.036Z,2.17
2024-04-24T17:26:44.318Z,2.90
2024-04-24T17:28:52.514Z,3.33
2024-04-24T17:30:54.536Z,5.20
2024-04-24T17:32:56.551Z,3.07
2024-04-24T17:34:58.530Z,2.43
2024-04-24T17:37:00.764Z,1.70
2024-04-24T17:39:02.712Z,3.80
2024-04-24T17:41:05.476Z,15.80
2024-04-24T17:43:07.347Z,2.77
2024-04-24T17:47:12.112Z,5.32
2024-04-24T17:49:14.151Z,4.20
2024-04-24T17:51:16.563Z,3.43
2024-04-24T17:53:18.525Z,5.20
2024-04-24T17:55:20.443Z,2.30
2024-04-24T17:59:25.474Z,1.42
2024-04-24T18:01:27.441Z,2.77
2024-04-24T18:03:30.945Z,2.07
2024-04-24T18:05:33.922Z,3.40
2024-04-24T18:07:36.899Z,2.40
2024-04-24T18:09:38.935Z,2.60
2024-04-24T18:11:41.284Z,2.10
2024-04-24T18:13:43.259Z,3.03
2024-04-24T18:17:47.879Z,3.47
2024-04-24T18:19:49.791Z,2.53
2024-04-24T18:23:53.547Z,2.00
2024-04-24T18:25:55.441Z,3.30
2024-04-24T18:30:00.990Z,5.17
2024-04-24T18:32:03.202Z,3.13
2024-04-24T18:34:05.270Z,5.47
2024-04-24T18:36:07.371Z,3.33
2024-04-24T18:38:09.424Z,4.00
2024-04-24T18:40:12.387Z,4.97
2024-04-24T18:42:14.377Z,4.80
2024-04-24T18:44:16.249Z,6.43
2024-04-24T18:48:21.220Z,5.28
2024-04-24T18:50:23.268Z,6.57
2024-04-24T18:54:27.041Z,8.02
2024-04-24T18:56:29.078Z,3.70
2024-04-24T18:58:31.513Z,6.27
2024-04-24T19:00:35.943Z,4.83
2024-04-24T19:02:38.020Z,3.73
2024-04-24T19:04:39.973Z,5.50
2024-04-24T19:08:46.886Z,3.70
2024-04-24T19:10:49.143Z,4.93
2024-04-24T19:12:52.623Z,5.43
2024-04-24T19:14:54.538Z,7.33
2024-04-24T19:18:59.440Z,4.77
2024-04-24T19:23:08.446Z,5.57
2024-04-24T19:25:11.615Z,9.10
2024-04-24T19:27:16.459Z,7.73
2024-04-24T19:29:20.726Z,5.07
2024-04-24T19:31:31.433Z,6.07
2024-04-24T19:33:35.204Z,5.13
2024-04-24T19:37:41.380Z,5.32
2024-04-24T19:39:43.653Z,4.70
2024-04-24T19:41:45.658Z,4.97
2024-04-24T19:43:47.548Z,5.33
2024-04-24T19:47:51.961Z,7.50
2024-04-24T19:49:53.912Z,4.20
2024-04-24T19:53:57.707Z,4.65
2024-04-24T19:56:04.147Z,4.83
2024-04-24T19:58:06.641Z,4.20
2024-04-24T20:00:09.123Z,5.77
2024-04-24T20:02:11.128Z,4.87
2024-04-24T20:04:13.065Z,7.37
2024-04-24T20:08:17.479Z,6.65
2024-04-24T20:10:19.356Z,5.87
2024-04-24T20:14:23.185Z,3.72
2024-04-24T20:16:26.412Z,4.83
2024-04-24T20:18:28.556Z,5.33
2024-04-24T20:20:33.982Z,5.30
2024-04-24T20:22:35.907Z,7.10
2024-04-24T20:26:39.836Z,4.63
2024-04-24T20:28:41.786Z,4.37
2024-04-24T20:32:46.174Z,5.25
2024-04-24T20:34:48.104Z,10.23
2024-04-24T20:38:52.727Z,4.63
2024-04-24T20:40:54.670Z,10.90
2024-04-24T20:44:58.422Z,4.75
2024-04-24T20:47:00.424Z,6.43
2024-04-24T20:49:02.432Z,5.20
2024-04-24T20:53:09.790Z,6.00
2024-04-24T20:57:13.809Z,3.95
2024-04-24T20:59:15.740Z,6.33
2024-04-24T21:01:18.721Z,6.17
2024-04-24T21:03:25.823Z,6.30
2024-04-24T21:05:27.805Z,6.17
2024-04-24T21:09:31.456Z,3.67
2024-04-24T21:13:35.271Z,7.60
2024-04-24T21:17:38.999Z,7.90
2024-04-24T21:19:40.945Z,5.37
2024-04-24T21:23:54.768Z,4.97
2024-04-24T21:26:02.661Z,8.13
2024-04-24T21:28:04.917Z,4.83
2024-04-24T21:30:07.225Z,7.67
2024-04-24T21:32:09.261Z,7.20
2024-04-24T21:34:11.229Z,5.27
2024-04-24T21:38:15.525Z,7.47
2024-04-24T21:40:17.715Z,8.57
2024-04-24T21:42:19.703Z,5.60
2024-04-24T21:44:21.621Z,5.53
2024-04-24T21:48:25.320Z,4.32
2024-04-24T21:52:31.323Z,5.60
2024-04-24T21:54:33.203Z,7.83
2024-04-24T21:58:37.150Z,7.22
2024-04-24T22:00:39.074Z,6.20
2024-04-24T22:04:43.030Z,10.50
2024-04-24T22:08:48.607Z,6.60
2024-04-24T22:10:50.584Z,10.17
2024-04-24T22:12:52.605Z,7.40
2024-04-24T22:14:55.523Z,6.53
2024-04-24T22:16:57.837Z,6.13
2024-04-24T22:19:00.030Z,6.90
2024-04-24T22:21:02.258Z,6.13
2024-04-24T22:23:04.275Z,7.57
2024-04-24T22:25:06.476Z,6.07
2024-04-24T22:27:08.367Z,6.83
2024-04-24T22:31:14.277Z,7.63
2024-04-24T22:33:16.397Z,7.33
2024-04-24T22:35:18.594Z,7.27
2024-04-24T22:37:20.483Z,9.00
2024-04-24T22:41:24.166Z,6.00
2024-04-24T22:45:28.230Z,8.55
2024-04-24T22:47:30.201Z,5.80
2024-04-24T22:49:32.128Z,8.90
2024-04-24T22:53:36.630Z,6.15
2024-04-24T22:55:38.605Z,12.97
2024-04-24T22:57:40.600Z,6.40
2024-04-24T22:59:42.906Z,6.43
2024-04-24T23:01:45.731Z,4.37
2024-04-24T23:03:47.817Z,5.70
2024-04-24T23:05:49.877Z,6.33
2024-04-24T23:07:51.830Z,6.83
2024-04-24T23:09:53.708Z,5.33
2024-04-24T23:13:57.522Z,6.07
2024-04-24T23:16:00.023Z,7.17
2024-04-24T23:18:02.395Z,8.40
2024-04-24T23:20:05.150Z,9.20
2024-04-24T23:22:07.637Z,8.33
2024-04-24T23:24:09.557Z,9.37
2024-04-24T23:28:13.381Z,9.93
2024-04-24T23:32:17.339Z,4.85
2024-04-24T23:36:21.262Z,9.95
2024-04-24T23:38:23.215Z,7.55
2024-04-24T23:42:27.050Z,4.72
2024-04-24T23:46:31.095Z,13.82
2024-04-24T23:48:33.437Z,8.70
2024-04-24T23:50:35.393Z,6.63
2024-04-24T23:54:39.925Z,8.27
2024-04-24T23:56:41.838Z,6.87
2024-04-24T23:58:43.974Z,5.17
